createdAt,value
2023-05-22T00:01:04.858Z,6.90
2023-05-22T00:03:33.243Z,7.60
2023-05-22T00:06:02.681Z,6.90
2023-05-22T00:08:31.062Z,6.22
2023-05-22T00:10:59.222Z,7.20
2023-05-22T00:13:27.240Z,7.50
2023-05-22T00:15:55.315Z,7.43
2023-05-22T00:18:23.372Z,7.05
2023-05-22T00:20:51.868Z,7.15
2023-05-22T00:23:21.906Z,6.78
2023-05-22T00:25:50.760Z,6.95
2023-05-22T00:28:18.835Z,6.65
2023-05-22T00:30:47.099Z,6.53
2023-05-22T00:33:15.172Z,7.00
2023-05-22T00:35:43.230Z,7.03
2023-05-22T00:38:27.832Z,6.90
2023-05-22T00:40:57.369Z,7.28
2023-05-22T00:43:25.724Z,7.28
2023-05-22T00:45:54.121Z,7.18
2023-05-22T00:48:22.222Z,7.30
2023-05-22T00:50:51.203Z,7.55
2023-05-22T00:53:22.034Z,8.23
2023-05-22T00:55:50.494Z,7.55
2023-05-22T00:58:21.685Z,7.57
2023-05-22T01:00:49.979Z,8.20
2023-05-22T01:03:19.467Z,8.07
2023-05-22T01:05:47.667Z,7.97
2023-05-22T01:08:15.747Z,7.78
2023-05-22T01:10:43.809Z,7.70
2023-05-22T01:13:21.292Z,7.90
2023-05-22T01:15:58.215Z,8.18
2023-05-22T01:18:32.969Z,8.27
2023-05-22T01:21:10.258Z,7.85
2023-05-22T01:24:16.148Z,8.82
2023-05-22T01:27:08.967Z,9.00
2023-05-22T01:29:47.344Z,8.15
2023-05-22T01:32:21.381Z,8.52
2023-05-22T01:34:55.272Z,7.72
2023-05-22T01:37:24.304Z,7.72
2023-05-22T01:39:54.447Z,8.10
2023-05-22T01:42:23.025Z,8.68
2023-05-22T01:44:51.174Z,8.00
2023-05-22T01:47:20.908Z,8.63
2023-05-22T01:49:49.139Z,7.68
2023-05-22T01:52:23.801Z,8.70
2023-05-22T01:54:58.311Z,8.20
2023-05-22T01:57:31.889Z,9.27
2023-05-22T02:00:07.323Z,8.52
2023-05-22T02:02:49.539Z,8.50
2023-05-22T02:05:21.864Z,8.90
2023-05-22T02:07:51.190Z,9.23
2023-05-22T02:10:21.117Z,9.00
2023-05-22T02:12:49.873Z,9.35
2023-05-22T02:15:18.152Z,9.48
2023-05-22T02:17:53.321Z,9.55
2023-05-22T02:20:21.736Z,8.93
2023-05-22T02:22:49.876Z,9.20
2023-05-22T02:25:18.067Z,9.40
2023-05-22T02:27:49.511Z,10.60
2023-05-22T02:30:17.797Z,9.75
2023-05-22T02:32:51.663Z,10.18
2023-05-22T02:35:19.989Z,9.48
2023-05-22T02:37:47.994Z,9.50
2023-05-22T02:40:16.116Z,9.82
2023-05-22T02:42:44.142Z,9.25
2023-05-22T02:45:14.187Z,9.32
2023-05-22T02:47:43.637Z,9.63
2023-05-22T02:50:14.735Z,10.43
2023-05-22T02:52:45.281Z,10.40
2023-05-22T02:55:13.355Z,10.00
2023-05-22T02:57:41.499Z,10.75
2023-05-22T03:00:11.710Z,11.65
2023-05-22T03:02:39.965Z,10.90
2023-05-22T03:05:08.633Z,10.38
2023-05-22T03:07:38.064Z,10.82
2023-05-22T03:10:07.344Z,10.25
2023-05-22T03:12:35.555Z,10.80
2023-05-22T03:15:03.617Z,10.38
2023-05-22T03:17:34.975Z,10.23
2023-05-22T03:20:03.825Z,9.95
2023-05-22T03:22:31.957Z,10.02
2023-05-22T03:25:01.634Z,10.55
2023-05-22T03:27:30.004Z,10.90
2023-05-22T03:29:58.188Z,10.77
2023-05-22T03:32:26.427Z,11.13
2023-05-22T03:34:55.168Z,10.43
2023-05-22T03:37:23.383Z,9.88
2023-05-22T03:39:51.434Z,10.32
2023-05-22T03:42:28.179Z,10.98
2023-05-22T03:44:57.470Z,10.50
2023-05-22T03:47:26.955Z,10.55
2023-05-22T03:49:54.975Z,11.45
2023-05-22T03:52:23.942Z,11.43
2023-05-22T03:54:53.497Z,11.88
2023-05-22T03:57:21.708Z,11.02
2023-05-22T03:59:51.348Z,10.73
2023-05-22T04:02:19.454Z,10.68
2023-05-22T04:04:47.519Z,10.40
2023-05-22T04:07:18.306Z,10.23
2023-05-22T04:09:46.481Z,10.90
2023-05-22T04:12:14.564Z,11.07
2023-05-22T04:14:43.932Z,11.15
2023-05-22T04:17:13.293Z,11.05
2023-05-22T04:19:41.422Z,11.73
2023-05-22T04:22:09.454Z,11.25
2023-05-22T04:24:39.714Z,11.32
2023-05-22T04:27:07.896Z,11.73
2023-05-22T04:29:36.386Z,10.98
2023-05-22T04:32:06.223Z,11.27
2023-05-22T04:34:37.760Z,11.90
2023-05-22T04:37:06.240Z,11.75
2023-05-22T04:39:34.363Z,11.30
2023-05-22T04:42:05.808Z,11.00
2023-05-22T04:44:34.597Z,10.90
2023-05-22T04:47:03.964Z,10.95
2023-05-22T04:49:33.710Z,11.77
2023-05-22T04:52:04.763Z,12.25
2023-05-22T04:54:32.890Z,12.02
2023-05-22T04:57:00.969Z,11.57
2023-05-22T04:59:29.089Z,11.82
2023-05-22T05:01:57.306Z,12.43
2023-05-22T05:04:26.071Z,11.25
2023-05-22T05:06:55.089Z,12.35
2023-05-22T05:09:24.844Z,12.98
2023-05-22T05:11:53.752Z,13.73
2023-05-22T05:14:21.830Z,14.23
2023-05-22T05:16:51.678Z,13.90
2023-05-22T05:19:21.483Z,14.15
2023-05-22T05:21:49.755Z,13.85
2023-05-22T05:24:18.429Z,12.70
2023-05-22T05:26:48.459Z,13.00
2023-05-22T05:29:18.606Z,13.52
2023-05-22T05:34:40.533Z,14.05
2023-05-22T05:37:21.174Z,13.20
2023-05-22T05:39:49.976Z,14.93
2023-05-22T05:42:19.568Z,14.70
2023-05-22T05:44:49.265Z,16.80
2023-05-22T05:47:18.257Z,15.30
2023-05-22T05:49:46.586Z,14.07
2023-05-22T05:52:16.490Z,14.70
2023-05-22T05:54:47.469Z,15.85
2023-05-22T05:57:19.489Z,13.70
2023-05-22T05:59:47.696Z,17.50
2023-05-22T06:02:34.382Z,14.63
2023-05-22T06:05:05.053Z,15.23
2023-05-22T06:07:38.044Z,13.95
2023-05-22T06:10:08.343Z,13.60
2023-05-22T06:12:47.294Z,14.35
2023-05-22T06:15:16.436Z,13.60
2023-05-22T06:17:44.484Z,12.88
2023-05-22T06:20:14.241Z,13.20
2023-05-22T06:22:43.247Z,13.15
2023-05-22T06:25:11.510Z,13.02
2023-05-22T06:27:39.555Z,15.27
2023-05-22T06:30:10.386Z,14.38
2023-05-22T06:32:40.738Z,13.27
2023-05-22T06:35:10.753Z,12.55
2023-05-22T06:37:42.206Z,15.55
2023-05-22T06:40:11.674Z,13.25
2023-05-22T06:42:50.213Z,15.82
2023-05-22T06:45:34.476Z,13.60
2023-05-22T06:48:20.866Z,13.20
2023-05-22T06:51:00.429Z,13.70
2023-05-22T06:53:28.530Z,13.45
2023-05-22T06:55:57.072Z,13.43
2023-05-22T06:58:38.661Z,14.65
2023-05-22T07:01:08.972Z,13.88
2023-05-22T07:03:42.497Z,15.10
2023-05-22T07:06:39.155Z,14.25
2023-05-22T07:09:08.397Z,15.25
2023-05-22T07:11:36.613Z,15.68
2023-05-22T07:14:05.005Z,14.10
2023-05-22T07:16:34.408Z,13.95
2023-05-22T07:19:03.455Z,13.23
2023-05-22T07:21:31.989Z,14.77
2023-05-22T07:24:00.226Z,16.02
2023-05-22T07:26:29.893Z,16.30
2023-05-22T07:29:05.833Z,16.35
2023-05-22T07:31:35.479Z,14.02
2023-05-22T07:34:03.718Z,14.43
2023-05-22T07:36:31.912Z,15.95
2023-05-22T07:38:59.969Z,17.50
2023-05-22T07:41:28.353Z,14.35
2023-05-22T07:43:56.710Z,15.68
2023-05-22T07:46:29.469Z,16.08
2023-05-22T07:49:10.901Z,18.05
2023-05-22T07:51:41.981Z,17.85
2023-05-22T07:54:11.012Z,18.95
2023-05-22T07:56:42.473Z,20.33
2023-05-22T07:59:12.127Z,18.50
2023-05-22T08:01:41.767Z,19.42
2023-05-22T08:04:11.424Z,15.73
2023-05-22T08:06:39.990Z,19.80
2023-05-22T08:09:08.106Z,19.95
2023-05-22T08:11:39.051Z,25.85
2023-05-22T08:14:07.920Z,21.20
2023-05-22T08:16:36.044Z,27.05
2023-05-22T08:19:04.836Z,23.50
2023-05-22T08:21:34.611Z,23.70
2023-05-22T08:24:03.049Z,24.65
2023-05-22T08:26:33.193Z,30.92
2023-05-22T08:29:01.690Z,30.42
2023-05-22T08:31:30.080Z,37.38
2023-05-22T08:34:02.145Z,39.78
2023-05-22T08:36:33.829Z,43.42
2023-05-22T08:39:03.667Z,37.85
2023-05-22T08:41:31.746Z,45.45
2023-05-22T08:43:59.877Z,46.22
2023-05-22T08:46:29.201Z,48.95
2023-05-22T08:48:58.821Z,48.30
2023-05-22T08:51:31.328Z,52.58
2023-05-22T08:54:00.510Z,49.72
2023-05-22T08:56:32.169Z,47.50
2023-05-22T08:59:02.093Z,55.55
2023-05-22T09:01:30.461Z,68.50
2023-05-22T09:04:01.782Z,68.85
2023-05-22T09:06:30.258Z,59.22
2023-05-22T09:08:58.704Z,69.13
2023-05-22T09:11:27.147Z,70.82
2023-05-22T09:14:07.995Z,62.40
2023-05-22T09:16:46.106Z,55.38
2023-05-22T09:19:14.809Z,71.05
2023-05-22T09:21:44.458Z,73.55
2023-05-22T09:24:13.160Z,71.07
2023-05-22T09:26:41.453Z,71.85
2023-05-22T09:29:11.112Z,72.82
2023-05-22T09:31:43.806Z,73.07
2023-05-22T09:34:14.259Z,67.72
2023-05-22T09:36:42.703Z,71.60
2023-05-22T09:39:10.946Z,72.38
2023-05-22T09:41:40.882Z,62.83
2023-05-22T09:44:15.456Z,63.72
2023-05-22T09:46:45.346Z,71.73
2023-05-22T09:49:16.384Z,76.43
2023-05-22T09:51:48.589Z,68.95
2023-05-22T09:54:18.035Z,78.53
2023-05-22T09:56:50.157Z,80.00
2023-05-22T09:59:23.503Z,76.60
2023-05-22T10:01:52.032Z,63.17
2023-05-22T10:04:22.828Z,70.35
2023-05-22T10:06:53.870Z,70.18
2023-05-22T10:09:24.818Z,65.43
2023-05-22T10:11:57.562Z,64.25
2023-05-22T10:14:29.024Z,62.10
2023-05-22T10:17:02.067Z,63.35
2023-05-22T10:19:32.909Z,61.33
2023-05-22T10:22:02.426Z,52.65
2023-05-22T10:24:30.884Z,48.13
2023-05-22T10:27:00.241Z,43.20
2023-05-22T10:29:39.261Z,48.60
2023-05-22T10:32:15.910Z,44.63
2023-05-22T10:37:48.219Z,45.47
2023-05-22T10:40:22.647Z,45.65
2023-05-22T10:42:50.881Z,48.45
2023-05-22T10:45:20.433Z,43.42
2023-05-22T10:47:48.564Z,39.63
2023-05-22T10:50:19.098Z,40.67
2023-05-22T10:52:48.551Z,41.90
2023-05-22T10:55:16.625Z,36.28
2023-05-22T10:57:44.717Z,36.17
2023-05-22T11:00:16.204Z,34.45
2023-05-22T11:02:49.902Z,31.90
2023-05-22T11:05:36.400Z,31.23
2023-05-22T11:08:11.472Z,30.38
2023-05-22T11:10:56.021Z,31.80
2023-05-22T11:13:29.021Z,36.15
2023-05-22T11:15:57.840Z,34.42
2023-05-22T11:18:30.009Z,35.15
2023-05-22T11:21:00.287Z,32.53
2023-05-22T11:23:28.489Z,30.92
2023-05-22T11:25:56.582Z,33.83
2023-05-22T11:28:25.513Z,38.47
2023-05-22T11:30:54.913Z,37.75
2023-05-22T11:33:24.530Z,41.20
2023-05-22T11:35:54.949Z,38.05
2023-05-22T11:38:23.226Z,38.25
2023-05-22T11:40:53.175Z,41.65
2023-05-22T11:43:31.443Z,39.58
2023-05-22T11:46:02.686Z,39.95
2023-05-22T11:48:30.821Z,34.78
2023-05-22T11:51:00.581Z,36.85
2023-05-22T11:53:28.669Z,37.67
2023-05-22T11:55:56.669Z,34.03
2023-05-22T11:58:28.725Z,32.15
2023-05-22T12:01:00.410Z,38.28
2023-05-22T12:03:28.530Z,37.17
2023-05-22T12:05:57.420Z,34.42
2023-05-22T12:08:27.400Z,37.10
2023-05-22T12:10:55.813Z,33.53
2023-05-22T12:13:27.928Z,35.60
2023-05-22T12:16:00.198Z,35.05
2023-05-22T12:18:28.470Z,36.75
2023-05-22T12:20:56.997Z,32.22
2023-05-22T12:23:27.531Z,32.28
2023-05-22T12:26:03.468Z,34.60
2023-05-22T12:28:33.552Z,36.05
2023-05-22T12:31:01.722Z,34.17
2023-05-22T12:33:30.331Z,36.72
2023-05-22T12:35:59.347Z,35.13
2023-05-22T12:38:30.769Z,33.90
2023-05-22T12:41:00.183Z,31.77
2023-05-22T12:43:28.153Z,35.15
2023-05-22T12:45:56.182Z,28.90
2023-05-22T12:48:24.248Z,28.35
2023-05-22T12:50:52.337Z,26.50
2023-05-22T12:53:20.752Z,35.13
2023-05-22T12:55:50.179Z,30.67
2023-05-22T12:58:18.244Z,30.13
2023-05-22T13:00:46.308Z,30.75
2023-05-22T13:03:14.457Z,34.00
2023-05-22T13:05:42.826Z,32.63
2023-05-22T13:08:11.112Z,33.58
2023-05-22T13:10:39.138Z,35.55
2023-05-22T13:13:08.673Z,36.50
2023-05-22T13:15:36.650Z,26.83
2023-05-22T13:18:04.840Z,35.47
2023-05-22T13:20:32.980Z,38.40
2023-05-22T13:23:01.062Z,36.22
2023-05-22T13:25:29.297Z,28.23
2023-05-22T13:27:57.345Z,32.90
2023-05-22T13:30:27.052Z,39.47
2023-05-22T13:32:55.466Z,36.50
2023-05-22T13:35:23.646Z,40.13
2023-05-22T13:37:51.770Z,29.52
2023-05-22T13:40:20.173Z,41.67
2023-05-22T13:42:48.236Z,39.28
2023-05-22T13:45:16.290Z,37.60
2023-05-22T13:47:46.132Z,37.97
2023-05-22T13:50:14.299Z,34.45
2023-05-22T13:52:42.325Z,42.08
2023-05-22T13:55:10.899Z,30.38
2023-05-22T13:57:40.440Z,41.47
2023-05-22T14:00:10.049Z,40.00
2023-05-22T14:02:38.520Z,36.10
2023-05-22T14:05:09.334Z,36.63
2023-05-22T14:07:37.500Z,33.95
2023-05-22T14:10:06.732Z,38.05
2023-05-22T14:12:34.980Z,36.97
2023-05-22T14:15:03.161Z,39.75
2023-05-22T14:17:31.263Z,40.72
2023-05-22T14:19:59.838Z,37.88
2023-05-22T14:22:29.202Z,34.58
2023-05-22T14:24:57.320Z,37.25
2023-05-22T14:27:25.373Z,40.20
2023-05-22T14:29:53.453Z,36.33
2023-05-22T14:32:21.561Z,34.35
2023-05-22T14:34:49.571Z,35.40
2023-05-22T14:37:18.948Z,33.03
2023-05-22T14:39:48.554Z,32.58
2023-05-22T14:42:16.681Z,32.92
2023-05-22T14:44:44.817Z,26.13
2023-05-22T14:47:13.194Z,26.60
2023-05-22T14:49:41.273Z,22.83
2023-05-22T14:52:09.386Z,20.88
2023-05-22T14:54:37.403Z,28.70
2023-05-22T14:57:07.218Z,29.20
2023-05-22T14:59:35.267Z,29.23
2023-05-22T15:02:03.444Z,26.70
2023-05-22T15:04:31.753Z,27.63
2023-05-22T15:06:59.797Z,23.15
2023-05-22T15:09:27.850Z,23.00
2023-05-22T15:11:55.935Z,28.42
2023-05-22T15:14:25.477Z,27.63
2023-05-22T15:16:53.901Z,27.92
2023-05-22T15:19:22.132Z,25.23
2023-05-22T15:21:50.610Z,26.70
2023-05-22T15:24:18.709Z,26.42
2023-05-22T15:26:46.925Z,28.25
2023-05-22T15:29:14.968Z,31.80
2023-05-22T15:31:44.637Z,26.67
2023-05-22T15:34:12.708Z,23.08
2023-05-22T15:36:41.087Z,29.30
2023-05-22T15:39:09.198Z,29.70
2023-05-22T15:41:37.607Z,28.00
2023-05-22T15:44:05.868Z,33.97
2023-05-22T15:46:33.967Z,33.53
2023-05-22T15:49:03.377Z,30.45
2023-05-22T15:51:32.670Z,33.80
2023-05-22T15:54:00.737Z,34.17
2023-05-22T15:56:28.798Z,32.40
2023-05-22T15:58:56.815Z,32.85
2023-05-22T16:01:24.916Z,35.63
2023-05-22T16:03:53.019Z,35.13
2023-05-22T16:06:23.316Z,36.20
2023-05-22T16:08:51.371Z,35.47
2023-05-22T16:11:19.529Z,33.47
2023-05-22T16:13:47.826Z,38.22
2023-05-22T16:16:17.388Z,38.60
2023-05-22T16:18:45.472Z,42.30
2023-05-22T16:21:13.484Z,44.92
2023-05-22T16:23:42.900Z,45.00
2023-05-22T16:26:10.945Z,44.40
2023-05-22T16:28:39.054Z,48.63
2023-05-22T16:31:07.248Z,48.60
2023-05-22T16:33:37.522Z,42.85
2023-05-22T16:36:06.246Z,47.60
2023-05-22T16:38:34.367Z,47.67
2023-05-22T16:41:03.853Z,43.63
2023-05-22T16:43:31.960Z,46.25
2023-05-22T16:46:00.204Z,46.55
2023-05-22T16:48:28.423Z,45.55
2023-05-22T16:50:56.593Z,45.33
2023-05-22T16:53:24.729Z,42.17
2023-05-22T16:55:52.966Z,43.55
2023-05-22T16:58:22.386Z,39.83
2023-05-22T17:00:50.608Z,40.35
2023-05-22T17:03:18.783Z,41.28
2023-05-22T17:05:47.611Z,33.60
2023-05-22T17:08:15.810Z,28.65
2023-05-22T17:10:43.989Z,36.08
2023-05-22T17:13:19.554Z,34.90
2023-05-22T17:15:49.530Z,33.83
2023-05-22T17:18:20.923Z,32.65
2023-05-22T17:20:49.537Z,31.60
2023-05-22T17:23:18.386Z,30.55
2023-05-22T17:25:46.976Z,30.80
2023-05-22T17:28:15.636Z,29.70
2023-05-22T17:30:45.224Z,25.88
2023-05-22T17:33:14.957Z,20.20
2023-05-22T17:35:43.125Z,17.23
2023-05-22T17:38:11.229Z,17.52
2023-05-22T17:40:45.702Z,15.77
2023-05-22T17:43:14.994Z,16.10
2023-05-22T17:45:44.484Z,14.07
2023-05-22T17:48:15.842Z,13.60
2023-05-22T17:50:43.980Z,12.10
2023-05-22T17:53:13.467Z,11.63
2023-05-22T17:55:41.561Z,10.35
2023-05-22T17:58:09.781Z,9.65
2023-05-22T18:00:37.927Z,9.02
2023-05-22T18:03:07.658Z,8.77
2023-05-22T18:05:37.374Z,8.20
2023-05-22T18:08:05.952Z,7.95
2023-05-22T18:10:33.997Z,7.65
2023-05-22T18:13:02.212Z,7.75
2023-05-22T18:15:30.517Z,6.95
2023-05-22T18:17:58.620Z,5.95
2023-05-22T18:20:26.710Z,6.80
2023-05-22T18:22:56.164Z,7.13
2023-05-22T18:25:24.332Z,6.68
2023-05-22T18:27:52.529Z,6.72
2023-05-22T18:30:20.584Z,6.28
2023-05-22T18:32:48.761Z,8.27
2023-05-22T18:35:16.880Z,8.82
2023-05-22T18:37:45.071Z,8.40
2023-05-22T18:40:15.323Z,6.85
2023-05-22T18:42:43.956Z,9.05
2023-05-22T18:45:12.447Z,9.57
2023-05-22T18:47:40.584Z,9.45
2023-05-22T18:50:09.404Z,9.55
2023-05-22T18:52:40.049Z,10.18
2023-05-22T18:55:08.748Z,11.20
2023-05-22T18:57:38.131Z,10.55
2023-05-22T19:00:08.101Z,9.82
2023-05-22T19:02:36.399Z,11.15
2023-05-22T19:05:05.130Z,10.00
2023-05-22T19:07:33.274Z,9.10
2023-05-22T19:10:01.437Z,10.32
2023-05-22T19:12:31.678Z,9.90
2023-05-22T19:15:01.207Z,9.68
2023-05-22T19:17:29.366Z,10.80
2023-05-22T19:19:57.414Z,10.73
2023-05-22T19:22:25.600Z,11.40
2023-05-22T19:24:53.547Z,10.13
2023-05-22T19:27:21.675Z,10.32
2023-05-22T19:29:49.912Z,10.30
2023-05-22T19:32:19.253Z,12.85
2023-05-22T19:34:47.603Z,11.07
2023-05-22T19:37:15.731Z,11.68
2023-05-22T19:39:43.834Z,11.23
2023-05-22T19:42:12.270Z,11.07
2023-05-22T19:44:40.355Z,11.32
2023-05-22T19:47:08.845Z,10.90
2023-05-22T19:49:38.312Z,10.57
2023-05-22T19:52:07.280Z,10.52
2023-05-22T19:54:35.627Z,10.35
2023-05-22T19:57:04.034Z,11.43
2023-05-22T19:59:33.225Z,10.23
2023-05-22T20:02:02.308Z,11.38
2023-05-22T20:04:31.533Z,9.40
2023-05-22T20:07:02.357Z,11.27
2023-05-22T20:09:30.532Z,9.40
2023-05-22T20:11:58.722Z,9.90
2023-05-22T20:14:26.854Z,11.48
2023-05-22T20:16:55.287Z,9.60
2023-05-22T20:19:25.506Z,10.50
2023-05-22T20:21:53.688Z,10.20
2023-05-22T20:24:25.113Z,8.13
2023-05-22T20:26:53.841Z,9.18
2023-05-22T20:29:21.856Z,8.82
2023-05-22T20:31:51.165Z,8.40
2023-05-22T20:34:20.558Z,7.65
2023-05-22T20:36:48.615Z,8.68
2023-05-22T20:39:18.089Z,6.90
2023-05-22T20:41:49.648Z,7.45
2023-05-22T20:44:19.172Z,7.22
2023-05-22T20:46:47.215Z,7.90
2023-05-22T20:49:16.130Z,7.82
2023-05-22T20:51:44.433Z,7.90
2023-05-22T20:54:12.467Z,7.43
2023-05-22T20:56:40.624Z,7.07
2023-05-22T20:59:10.123Z,6.55
2023-05-22T21:01:38.368Z,7.50
2023-05-22T21:04:06.532Z,6.78
2023-05-22T21:06:34.738Z,6.78
2023-05-22T21:09:02.889Z,7.70
2023-05-22T21:11:30.929Z,6.63
2023-05-22T21:13:58.962Z,6.40
2023-05-22T21:16:28.422Z,7.28
2023-05-22T21:18:56.571Z,6.63
2023-05-22T21:21:24.656Z,7.03
2023-05-22T21:23:52.921Z,6.43
2023-05-22T21:26:22.350Z,6.90
2023-05-22T21:28:50.694Z,6.72
2023-05-22T21:31:18.941Z,7.00
2023-05-22T21:33:48.373Z,7.40
2023-05-22T21:36:16.694Z,7.57
2023-05-22T21:38:44.863Z,6.53
2023-05-22T21:41:13.033Z,7.50
2023-05-22T21:43:41.177Z,6.50
2023-05-22T21:46:09.353Z,6.30
2023-05-22T21:48:37.450Z,6.28
2023-05-22T21:51:07.225Z,6.90
2023-05-22T21:53:35.240Z,6.55
2023-05-22T21:56:03.266Z,6.10
2023-05-22T21:58:31.356Z,6.13
2023-05-22T22:00:59.376Z,6.97
2023-05-22T22:03:27.511Z,6.28
2023-05-22T22:05:55.641Z,6.28
2023-05-22T22:08:27.106Z,6.10
2023-05-22T22:10:55.306Z,5.97
2023-05-22T22:13:23.434Z,6.57
2023-05-22T22:15:51.710Z,7.22
2023-05-22T22:18:19.786Z,6.40
2023-05-22T22:20:50.174Z,6.50
2023-05-22T22:23:18.374Z,6.25
2023-05-22T22:25:48.011Z,6.30
2023-05-22T22:28:16.051Z,6.72
2023-05-22T22:30:44.170Z,6.32
2023-05-22T22:33:12.848Z,6.50
2023-05-22T22:35:42.167Z,7.35
2023-05-22T22:38:10.555Z,6.63
2023-05-22T22:40:38.655Z,7.82
2023-05-22T22:43:08.155Z,8.15
2023-05-22T22:45:36.219Z,6.90
2023-05-22T22:48:05.751Z,6.47
2023-05-22T22:50:33.945Z,7.88
2023-05-22T22:53:01.956Z,6.20
2023-05-22T22:55:30.283Z,6.65
2023-05-22T22:57:59.469Z,6.68
2023-05-22T23:00:29.212Z,7.10
2023-05-22T23:02:57.396Z,7.90
2023-05-22T23:05:25.587Z,6.38
2023-05-22T23:07:53.678Z,6.78
2023-05-22T23:10:22.378Z,6.40
2023-05-22T23:12:50.350Z,6.45
2023-05-22T23:15:18.534Z,6.80
2023-05-22T23:17:50.160Z,7.82
2023-05-22T23:20:19.738Z,7.60
2023-05-22T23:22:47.762Z,7.47
2023-05-22T23:25:15.737Z,6.03
2023-05-22T23:27:43.984Z,7.32
2023-05-22T23:30:12.973Z,7.13
2023-05-22T23:32:41.038Z,8.82
2023-05-22T23:35:11.213Z,8.57
2023-05-22T23:37:39.227Z,8.35
2023-05-22T23:40:08.800Z,9.30
2023-05-22T23:42:37.448Z,9.90
2023-05-22T23:45:06.189Z,11.35
2023-05-22T23:47:34.229Z,13.85
2023-05-22T23:50:02.353Z,13.23
2023-05-22T23:52:32.103Z,14.52
2023-05-22T23:55:00.730Z,14.55
2023-05-22T23:57:28.939Z,14.95
2023-05-22T23:59:56.945Z,12.27
